sensor_id;sensor_type;location;lat;lon;timestamp;P1;durP1;ratioP1;P2;durP2;ratioP2
20711;SDS011;10517;50.742;4.224;2024-01-30T00:01:57;1.30;;;1.03;;
20711;SDS011;10517;50.742;4.224;2024-01-30T00:04:23;1.92;;;1.58;;
20711;SDS011;10517;50.742;4.224;2024-01-30T00:06:50;1.42;;;0.93;;
20711;SDS011;10517;50.742;4.224;2024-01-30T00:09:16;1.33;;;0.95;;
20711;SDS011;10517;50.742;4.224;2024-01-30T00:11:41;1.80;;;1.45;;
20711;SDS011;10517;50.742;4.224;2024-01-30T00:14:07;2.45;;;1.30;;
20711;SDS011;10517;50.742;4.224;2024-01-30T00:16:33;1.93;;;1.00;;
20711;SDS011;10517;50.742;4.224;2024-01-30T00:18:59;2.22;;;1.30;;
20711;SDS011;10517;50.742;4.224;2024-01-30T00:21:26;1.63;;;1.27;;
20711;SDS011;10517;50.742;4.224;2024-01-30T00:23:51;2.13;;;1.13;;
20711;SDS011;10517;50.742;4.224;2024-01-30T00:26:17;3.13;;;1.03;;
20711;SDS011;10517;50.742;4.224;2024-01-30T00:28:42;1.95;;;1.30;;
20711;SDS011;10517;50.742;4.224;2024-01-30T00:31:09;4.28;;;1.45;;
20711;SDS011;10517;50.742;4.224;2024-01-30T00:33:40;1.88;;;1.13;;
20711;SDS011;10517;50.742;4.224;2024-01-30T00:36:07;3.77;;;1.77;;
20711;SDS011;10517;50.742;4.224;2024-01-30T00:38:33;2.20;;;1.20;;
20711;SDS011;10517;50.742;4.224;2024-01-30T00:40:59;2.92;;;1.38;;
20711;SDS011;10517;50.742;4.224;2024-01-30T00:43:25;2.35;;;1.42;;
20711;SDS011;10517;50.742;4.224;2024-01-30T00:45:50;2.33;;;1.35;;
20711;SDS011;10517;50.742;4.224;2024-01-30T00:48:19;5.17;;;1.23;;
20711;SDS011;10517;50.742;4.224;2024-01-30T00:50:45;1.67;;;0.90;;
20711;SDS011;10517;50.742;4.224;2024-01-30T00:53:11;6.50;;;1.38;;
20711;SDS011;10517;50.742;4.224;2024-01-30T00:55:37;5.40;;;1.00;;
20711;SDS011;10517;50.742;4.224;2024-01-30T00:58:02;4.97;;;1.40;;
20711;SDS011;10517;50.742;4.224;2024-01-30T01:00:28;1.48;;;0.85;;
20711;SDS011;10517;50.742;4.224;2024-01-30T01:02:54;3.47;;;1.37;;
20711;SDS011;10517;50.742;4.224;2024-01-30T01:05:20;4.60;;;2.00;;
20711;SDS011;10517;50.742;4.224;2024-01-30T01:07:46;3.95;;;1.40;;
20711;SDS011;10517;50.742;4.224;2024-01-30T01:10:13;2.25;;;1.13;;
20711;SDS011;10517;50.742;4.224;2024-01-30T01:12:39;4.57;;;1.13;;
20711;SDS011;10517;50.742;4.224;2024-01-30T01:15:05;3.78;;;1.83;;
20711;SDS011;10517;50.742;4.224;2024-01-30T01:17:34;1.80;;;0.80;;
20711;SDS011;10517;50.742;4.224;2024-01-30T01:20:00;1.83;;;0.90;;
20711;SDS011;10517;50.742;4.224;2024-01-30T01:22:25;5.13;;;1.58;;
20711;SDS011;10517;50.742;4.224;2024-01-30T01:24:51;3.15;;;1.23;;
20711;SDS011;10517;50.742;4.224;2024-01-30T01:27:16;2.88;;;1.10;;
20711;SDS011;10517;50.742;4.224;2024-01-30T01:29:42;5.20;;;1.20;;
20711;SDS011;10517;50.742;4.224;2024-01-30T01:32:08;1.55;;;1.08;;
20711;SDS011;10517;50.742;4.224;2024-01-30T01:34:33;2.53;;;1.20;;
20711;SDS011;10517;50.742;4.224;2024-01-30T01:36:59;2.10;;;0.80;;
20711;SDS011;10517;50.742;4.224;2024-01-30T01:39:25;1.60;;;0.63;;
20711;SDS011;10517;50.742;4.224;2024-01-30T01:41:50;3.78;;;1.40;;
20711;SDS011;10517;50.742;4.224;2024-01-30T01:44:17;1.45;;;1.10;;
20711;SDS011;10517;50.742;4.224;2024-01-30T01:46:43;3.03;;;1.17;;
20711;SDS011;10517;50.742;4.224;2024-01-30T01:49:09;2.70;;;1.25;;
20711;SDS011;10517;50.742;4.224;2024-01-30T01:51:36;1.40;;;0.93;;
20711;SDS011;10517;50.742;4.224;2024-01-30T01:54:03;1.40;;;0.90;;
20711;SDS011;10517;50.742;4.224;2024-01-30T01:56:33;2.10;;;1.20;;
20711;SDS011;10517;50.742;4.224;2024-01-30T01:59:00;2.78;;;1.35;;
20711;SDS011;10517;50.742;4.224;2024-01-30T02:01:30;1.63;;;1.05;;
20711;SDS011;10517;50.742;4.224;2024-01-30T02:03:58;2.97;;;1.17;;
20711;SDS011;10517;50.742;4.224;2024-01-30T02:06:26;2.17;;;1.35;;
20711;SDS011;10517;50.742;4.224;2024-01-30T02:08:53;3.22;;;1.77;;
20711;SDS011;10517;50.742;4.224;2024-01-30T02:11:19;1.77;;;1.13;;
20711;SDS011;10517;50.742;4.224;2024-01-30T02:13:45;2.00;;;1.05;;
20711;SDS011;10517;50.742;4.224;2024-01-30T02:16:11;3.00;;;1.15;;
20711;SDS011;10517;50.742;4.224;2024-01-30T02:18:37;2.53;;;0.98;;
20711;SDS011;10517;50.742;4.224;2024-01-30T02:21:12;2.10;;;0.98;;
20711;SDS011;10517;50.742;4.224;2024-01-30T02:23:38;4.13;;;1.33;;
20711;SDS011;10517;50.742;4.224;2024-01-30T02:26:05;2.17;;;0.95;;
20711;SDS011;10517;50.742;4.224;2024-01-30T02:28:31;2.88;;;0.93;;
20711;SDS011;10517;50.742;4.224;2024-01-30T02:30:57;2.70;;;1.20;;
20711;SDS011;10517;50.742;4.224;2024-01-30T02:33:22;5.03;;;1.23;;
20711;SDS011;10517;50.742;4.224;2024-01-30T02:35:48;1.90;;;1.25;;
20711;SDS011;10517;50.742;4.224;2024-01-30T02:38:15;1.63;;;0.77;;
20711;SDS011;10517;50.742;4.224;2024-01-30T02:40:40;1.02;;;0.80;;
20711;SDS011;10517;50.742;4.224;2024-01-30T02:43:06;1.23;;;0.70;;
20711;SDS011;10517;50.742;4.224;2024-01-30T02:45:31;1.95;;;1.08;;
20711;SDS011;10517;50.742;4.224;2024-01-30T02:47:57;2.25;;;1.38;;
20711;SDS011;10517;50.742;4.224;2024-01-30T02:50:22;1.80;;;0.90;;
20711;SDS011;10517;50.742;4.224;2024-01-30T02:52:48;2.00;;;1.05;;
20711;SDS011;10517;50.742;4.224;2024-01-30T02:55:14;2.88;;;1.50;;
20711;SDS011;10517;50.742;4.224;2024-01-30T02:57:42;1.95;;;1.33;;
20711;SDS011;10517;50.742;4.224;2024-01-30T03:00:08;5.28;;;0.98;;
20711;SDS011;10517;50.742;4.224;2024-01-30T03:02:34;2.28;;;1.42;;
20711;SDS011;10517;50.742;4.224;2024-01-30T03:05:00;1.70;;;1.13;;
20711;SDS011;10517;50.742;4.224;2024-01-30T03:07:26;3.78;;;1.17;;
20711;SDS011;10517;50.742;4.224;2024-01-30T03:09:52;2.75;;;1.02;;
20711;SDS011;10517;50.742;4.224;2024-01-30T03:12:17;2.05;;;1.05;;
20711;SDS011;10517;50.742;4.224;2024-01-30T03:14:43;7.63;;;1.23;;
20711;SDS011;10517;50.742;4.224;2024-01-30T03:17:08;1.45;;;0.73;;
20711;SDS011;10517;50.742;4.224;2024-01-30T03:19:34;1.33;;;0.98;;
20711;SDS011;10517;50.742;4.224;2024-01-30T03:21:59;2.97;;;1.48;;
20711;SDS011;10517;50.742;4.224;2024-01-30T03:24:25;2.17;;;1.08;;
20711;SDS011;10517;50.742;4.224;2024-01-30T03:26:51;2.28;;;1.40;;
20711;SDS011;10517;50.742;4.224;2024-01-30T03:29:16;2.60;;;1.23;;
20711;SDS011;10517;50.742;4.224;2024-01-30T03:31:42;0.70;;;0.65;;
20711;SDS011;10517;50.742;4.224;2024-01-30T03:34:07;1.42;;;1.00;;
20711;SDS011;10517;50.742;4.224;2024-01-30T03:36:33;2.42;;;0.98;;
20711;SDS011;10517;50.742;4.224;2024-01-30T03:38:59;1.85;;;0.93;;
20711;SDS011;10517;50.742;4.224;2024-01-30T03:41:25;2.60;;;1.23;;
20711;SDS011;10517;50.742;4.224;2024-01-30T03:43:51;4.10;;;1.30;;
20711;SDS011;10517;50.742;4.224;2024-01-30T03:46:16;1.13;;;0.63;;
20711;SDS011;10517;50.742;4.224;2024-01-30T03:48:42;1.30;;;1.00;;
20711;SDS011;10517;50.742;4.224;2024-01-30T03:51:08;1.15;;;1.00;;
20711;SDS011;10517;50.742;4.224;2024-01-30T03:53:34;1.85;;;1.58;;
20711;SDS011;10517;50.742;4.224;2024-01-30T03:55:59;1.90;;;1.17;;
20711;SDS011;10517;50.742;4.224;2024-01-30T03:58:25;1.67;;;1.13;;
20711;SDS011;10517;50.742;4.224;2024-01-30T04:00:50;2.08;;;0.93;;
20711;SDS011;10517;50.742;4.224;2024-01-30T04:03:16;2.00;;;1.17;;
20711;SDS011;10517;50.742;4.224;2024-01-30T04:05:42;4.78;;;0.98;;
20711;SDS011;10517;50.742;4.224;2024-01-30T04:08:08;1.92;;;1.15;;
20711;SDS011;10517;50.742;4.224;2024-01-30T04:10:33;1.30;;;0.93;;
20711;SDS011;10517;50.742;4.224;2024-01-30T04:12:59;2.65;;;1.00;;
20711;SDS011;10517;50.742;4.224;2024-01-30T04:15:25;2.45;;;1.25;;
20711;SDS011;10517;50.742;4.224;2024-01-30T04:17:51;2.75;;;0.98;;
20711;SDS011;10517;50.742;4.224;2024-01-30T04:20:17;1.15;;;0.85;;
20711;SDS011;10517;50.742;4.224;2024-01-30T04:22:43;3.72;;;2.15;;
20711;SDS011;10517;50.742;4.224;2024-01-30T04:25:09;2.28;;;1.20;;
20711;SDS011;10517;50.742;4.224;2024-01-30T04:27:35;2.85;;;0.85;;
20711;SDS011;10517;50.742;4.224;2024-01-30T04:30:01;4.05;;;0.82;;
20711;SDS011;10517;50.742;4.224;2024-01-30T04:32:26;3.00;;;1.25;;
20711;SDS011;10517;50.742;4.224;2024-01-30T04:34:52;3.00;;;1.38;;
20711;SDS011;10517;50.742;4.224;2024-01-30T04:37:17;4.47;;;1.40;;
20711;SDS011;10517;50.742;4.224;2024-01-30T04:39:43;1.20;;;1.10;;
20711;SDS011;10517;50.742;4.224;2024-01-30T04:42:08;2.25;;;0.80;;
20711;SDS011;10517;50.742;4.224;2024-01-30T04:44:34;3.10;;;1.58;;
20711;SDS011;10517;50.742;4.224;2024-01-30T04:46:59;2.13;;;1.08;;
20711;SDS011;10517;50.742;4.224;2024-01-30T04:49:26;2.42;;;1.08;;
20711;SDS011;10517;50.742;4.224;2024-01-30T04:51:52;1.63;;;1.00;;
20711;SDS011;10517;50.742;4.224;2024-01-30T04:54:18;3.28;;;1.58;;
20711;SDS011;10517;50.742;4.224;2024-01-30T04:56:43;2.63;;;1.15;;
20711;SDS011;10517;50.742;4.224;2024-01-30T04:59:09;1.83;;;1.23;;
20711;SDS011;10517;50.742;4.224;2024-01-30T05:01:34;2.58;;;1.77;;
20711;SDS011;10517;50.742;4.224;2024-01-30T05:04:00;4.28;;;1.50;;
20711;SDS011;10517;50.742;4.224;2024-01-30T05:06:28;3.55;;;1.50;;
20711;SDS011;10517;50.742;4.224;2024-01-30T05:08:54;2.03;;;1.10;;
20711;SDS011;10517;50.742;4.224;2024-01-30T05:11:20;3.03;;;1.55;;
20711;SDS011;10517;50.742;4.224;2024-01-30T05:13:46;1.80;;;1.17;;
20711;SDS011;10517;50.742;4.224;2024-01-30T05:16:11;3.15;;;1.48;;
20711;SDS011;10517;50.742;4.224;2024-01-30T05:18:37;2.00;;;1.30;;
20711;SDS011;10517;50.742;4.224;2024-01-30T05:21:03;2.75;;;1.17;;
20711;SDS011;10517;50.742;4.224;2024-01-30T05:23:30;1.10;;;1.00;;
20711;SDS011;10517;50.742;4.224;2024-01-30T05:25:56;7.05;;;1.20;;
20711;SDS011;10517;50.742;4.224;2024-01-30T05:28:21;4.05;;;1.20;;
20711;SDS011;10517;50.742;4.224;2024-01-30T05:30:47;1.55;;;1.10;;
20711;SDS011;10517;50.742;4.224;2024-01-30T05:33:12;2.55;;;1.30;;
20711;SDS011;10517;50.742;4.224;2024-01-30T05:35:38;2.25;;;1.08;;
20711;SDS011;10517;50.742;4.224;2024-01-30T05:38:04;2.83;;;1.48;;
20711;SDS011;10517;50.742;4.224;2024-01-30T05:40:32;2.97;;;1.00;;
20711;SDS011;10517;50.742;4.224;2024-01-30T05:42:58;2.70;;;1.10;;
20711;SDS011;10517;50.742;4.224;2024-01-30T05:45:26;4.25;;;1.25;;
20711;SDS011;10517;50.742;4.224;2024-01-30T05:47:51;0.90;;;0.75;;
20711;SDS011;10517;50.742;4.224;2024-01-30T05:50:17;1.50;;;0.95;;
20711;SDS011;10517;50.742;4.224;2024-01-30T05:52:43;3.13;;;1.42;;
20711;SDS011;10517;50.742;4.224;2024-01-30T05:55:08;4.05;;;1.77;;
20711;SDS011;10517;50.742;4.224;2024-01-30T05:57:35;4.10;;;1.60;;
20711;SDS011;10517;50.742;4.224;2024-01-30T06:00:00;2.57;;;1.23;;
20711;SDS011;10517;50.742;4.224;2024-01-30T06:02:26;1.48;;;1.17;;
20711;SDS011;10517;50.742;4.224;2024-01-30T06:04:51;0.80;;;0.65;;
20711;SDS011;10517;50.742;4.224;2024-01-30T06:07:17;3.88;;;1.50;;
20711;SDS011;10517;50.742;4.224;2024-01-30T06:09:43;4.22;;;1.08;;
20711;SDS011;10517;50.742;4.224;2024-01-30T06:12:08;1.77;;;1.10;;
20711;SDS011;10517;50.742;4.224;2024-01-30T06:14:36;3.72;;;1.58;;
20711;SDS011;10517;50.742;4.224;2024-01-30T06:17:02;1.92;;;0.93;;
20711;SDS011;10517;50.742;4.224;2024-01-30T06:19:27;2.35;;;1.38;;
20711;SDS011;10517;50.742;4.224;2024-01-30T06:21:53;2.22;;;1.65;;
20711;SDS011;10517;50.742;4.224;2024-01-30T06:24:19;4.22;;;1.40;;
20711;SDS011;10517;50.742;4.224;2024-01-30T06:26:44;3.67;;;1.30;;
20711;SDS011;10517;50.742;4.224;2024-01-30T06:29:10;1.63;;;1.40;;
20711;SDS011;10517;50.742;4.224;2024-01-30T06:31:41;2.58;;;1.73;;
20711;SDS011;10517;50.742;4.224;2024-01-30T06:34:08;3.35;;;1.63;;
20711;SDS011;10517;50.742;4.224;2024-01-30T06:36:34;4.85;;;1.40;;
20711;SDS011;10517;50.742;4.224;2024-01-30T06:39:00;1.30;;;0.95;;
20711;SDS011;10517;50.742;4.224;2024-01-30T06:41:27;3.25;;;1.17;;
20711;SDS011;10517;50.742;4.224;2024-01-30T06:43:52;5.72;;;1.13;;
20711;SDS011;10517;50.742;4.224;2024-01-30T06:46:18;1.90;;;1.33;;
20711;SDS011;10517;50.742;4.224;2024-01-30T06:48:43;1.77;;;1.63;;
20711;SDS011;10517;50.742;4.224;2024-01-30T06:51:10;2.25;;;1.08;;
20711;SDS011;10517;50.742;4.224;2024-01-30T06:53:36;3.95;;;1.80;;
20711;SDS011;10517;50.742;4.224;2024-01-30T06:56:02;7.07;;;1.70;;
20711;SDS011;10517;50.742;4.224;2024-01-30T06:58:27;1.52;;;0.98;;
20711;SDS011;10517;50.742;4.224;2024-01-30T07:00:53;4.63;;;1.42;;
20711;SDS011;10517;50.742;4.224;2024-01-30T07:03:19;2.72;;;1.50;;
20711;SDS011;10517;50.742;4.224;2024-01-30T07:05:45;2.65;;;1.27;;
20711;SDS011;10517;50.742;4.224;2024-01-30T07:08:10;3.15;;;1.35;;
20711;SDS011;10517;50.742;4.224;2024-01-30T07:10:36;1.98;;;1.20;;
20711;SDS011;10517;50.742;4.224;2024-01-30T07:13:01;1.13;;;0.98;;
20711;SDS011;10517;50.742;4.224;2024-01-30T07:15:29;3.70;;;1.10;;
20711;SDS011;10517;50.742;4.224;2024-01-30T07:17:54;1.65;;;1.00;;
20711;SDS011;10517;50.742;4.224;2024-01-30T07:20:20;1.30;;;1.02;;
20711;SDS011;10517;50.742;4.224;2024-01-30T07:22:46;5.03;;;1.58;;
20711;SDS011;10517;50.742;4.224;2024-01-30T07:25:12;3.10;;;1.80;;
20711;SDS011;10517;50.742;4.224;2024-01-30T07:27:38;3.60;;;1.60;;
20711;SDS011;10517;50.742;4.224;2024-01-30T07:30:03;3.20;;;1.40;;
20711;SDS011;10517;50.742;4.224;2024-01-30T07:32:29;2.75;;;1.25;;
20711;SDS011;10517;50.742;4.224;2024-01-30T07:34:55;2.90;;;1.70;;
20711;SDS011;10517;50.742;4.224;2024-01-30T07:37:20;2.42;;;1.10;;
20711;SDS011;10517;50.742;4.224;2024-01-30T07:39:46;4.32;;;1.70;;
20711;SDS011;10517;50.742;4.224;2024-01-30T07:42:12;3.40;;;1.60;;
20711;SDS011;10517;50.742;4.224;2024-01-30T07:44:37;3.67;;;1.55;;
20711;SDS011;10517;50.742;4.224;2024-01-30T07:47:04;6.90;;;1.63;;
20711;SDS011;10517;50.742;4.224;2024-01-30T07:49:30;11.63;;;1.77;;
20711;SDS011;10517;50.742;4.224;2024-01-30T07:51:56;4.65;;;2.05;;
20711;SDS011;10517;50.742;4.224;2024-01-30T07:54:21;3.00;;;1.05;;
20711;SDS011;10517;50.742;4.224;2024-01-30T07:56:48;6.57;;;2.00;;
20711;SDS011;10517;50.742;4.224;2024-01-30T07:59:14;6.47;;;1.60;;
20711;SDS011;10517;50.742;4.224;2024-01-30T08:01:40;5.80;;;1.90;;
20711;SDS011;10517;50.742;4.224;2024-01-30T08:04:05;5.43;;;1.55;;
20711;SDS011;10517;50.742;4.224;2024-01-30T08:06:31;4.80;;;1.60;;
20711;SDS011;10517;50.742;4.224;2024-01-30T08:08:56;3.67;;;2.45;;
20711;SDS011;10517;50.742;4.224;2024-01-30T08:11:24;7.18;;;1.52;;
20711;SDS011;10517;50.742;4.224;2024-01-30T08:13:52;6.47;;;1.45;;
20711;SDS011;10517;50.742;4.224;2024-01-30T08:16:17;4.47;;;1.90;;
20711;SDS011;10517;50.742;4.224;2024-01-30T08:18:43;3.47;;;2.00;;
20711;SDS011;10517;50.742;4.224;2024-01-30T08:21:09;5.03;;;2.50;;
20711;SDS011;10517;50.742;4.224;2024-01-30T08:23:34;1.63;;;1.27;;
20711;SDS011;10517;50.742;4.224;2024-01-30T08:26:00;4.97;;;1.65;;
20711;SDS011;10517;50.742;4.224;2024-01-30T08:28:26;4.07;;;1.70;;
20711;SDS011;10517;50.742;4.224;2024-01-30T08:30:52;2.95;;;2.00;;
20711;SDS011;10517;50.742;4.224;2024-01-30T08:33:17;2.30;;;1.30;;
20711;SDS011;10517;50.742;4.224;2024-01-30T08:35:43;4.10;;;1.98;;
20711;SDS011;10517;50.742;4.224;2024-01-30T08:38:08;3.25;;;1.35;;
20711;SDS011;10517;50.742;4.224;2024-01-30T08:40:34;4.00;;;1.55;;
20711;SDS011;10517;50.742;4.224;2024-01-30T08:43:00;2.90;;;1.98;;
20711;SDS011;10517;50.742;4.224;2024-01-30T08:45:25;1.95;;;1.13;;
20711;SDS011;10517;50.742;4.224;2024-01-30T08:47:51;1.45;;;1.05;;
20711;SDS011;10517;50.742;4.224;2024-01-30T08:50:17;2.22;;;1.25;;
20711;SDS011;10517;50.742;4.224;2024-01-30T08:52:42;5.47;;;1.75;;
20711;SDS011;10517;50.742;4.224;2024-01-30T08:55:08;2.67;;;1.77;;
20711;SDS011;10517;50.742;4.224;2024-01-30T08:57:34;2.00;;;1.20;;
20711;SDS011;10517;50.742;4.224;2024-01-30T09:00:00;8.10;;;2.72;;
20711;SDS011;10517;50.742;4.224;2024-01-30T09:02:29;4.95;;;1.38;;
20711;SDS011;10517;50.742;4.224;2024-01-30T09:04:55;2.63;;;2.00;;
20711;SDS011;10517;50.742;4.224;2024-01-30T09:07:20;4.38;;;1.67;;
20711;SDS011;10517;50.742;4.224;2024-01-30T09:09:46;6.13;;;2.13;;
20711;SDS011;10517;50.742;4.224;2024-01-30T09:12:11;1.48;;;1.30;;
20711;SDS011;10517;50.742;4.224;2024-01-30T09:14:38;6.43;;;1.75;;
20711;SDS011;10517;50.742;4.224;2024-01-30T09:17:04;6.40;;;1.88;;
20711;SDS011;10517;50.742;4.224;2024-01-30T09:19:30;3.80;;;1.92;;
20711;SDS011;10517;50.742;4.224;2024-01-30T09:21:56;3.45;;;2.28;;
20711;SDS011;10517;50.742;4.224;2024-01-30T09:24:21;3.88;;;1.83;;
20711;SDS011;10517;50.742;4.224;2024-01-30T09:26:47;3.30;;;1.58;;
20711;SDS011;10517;50.742;4.224;2024-01-30T09:29:13;1.88;;;1.65;;
20711;SDS011;10517;50.742;4.224;2024-01-30T09:31:38;3.45;;;2.33;;
20711;SDS011;10517;50.742;4.224;2024-01-30T09:34:04;2.97;;;1.52;;
20711;SDS011;10517;50.742;4.224;2024-01-30T09:36:29;4.72;;;2.35;;
20711;SDS011;10517;50.742;4.224;2024-01-30T09:38:56;5.82;;;2.45;;
20711;SDS011;10517;50.742;4.224;2024-01-30T09:41:23;8.50;;;2.65;;
20711;SDS011;10517;50.742;4.224;2024-01-30T09:43:50;5.93;;;2.00;;
20711;SDS011;10517;50.742;4.224;2024-01-30T09:46:16;6.80;;;1.92;;
20711;SDS011;10517;50.742;4.224;2024-01-30T09:48:48;5.15;;;2.95;;
20711;SDS011;10517;50.742;4.224;2024-01-30T09:51:15;8.52;;;2.85;;
20711;SDS011;10517;50.742;4.224;2024-01-30T09:53:42;9.60;;;2.50;;
20711;SDS011;10517;50.742;4.224;2024-01-30T09:56:09;4.15;;;2.10;;
20711;SDS011;10517;50.742;4.224;2024-01-30T09:58:36;6.00;;;2.03;;
20711;SDS011;10517;50.742;4.224;2024-01-30T10:01:01;4.22;;;2.50;;
20711;SDS011;10517;50.742;4.224;2024-01-30T10:03:27;3.28;;;2.15;;
20711;SDS011;10517;50.742;4.224;2024-01-30T10:05:53;3.17;;;1.58;;
20711;SDS011;10517;50.742;4.224;2024-01-30T10:08:20;2.90;;;2.03;;
20711;SDS011;10517;50.742;4.224;2024-01-30T10:10:47;4.50;;;2.58;;
20711;SDS011;10517;50.742;4.224;2024-01-30T10:13:13;3.20;;;1.65;;
20711;SDS011;10517;50.742;4.224;2024-01-30T10:15:39;3.63;;;1.83;;
20711;SDS011;10517;50.742;4.224;2024-01-30T10:18:05;2.90;;;1.88;;
20711;SDS011;10517;50.742;4.224;2024-01-30T10:20:31;3.42;;;2.13;;
20711;SDS011;10517;50.742;4.224;2024-01-30T10:22:57;3.90;;;2.88;;
20711;SDS011;10517;50.742;4.224;2024-01-30T10:25:24;4.40;;;2.15;;
20711;SDS011;10517;50.742;4.224;2024-01-30T10:27:54;2.25;;;1.40;;
20711;SDS011;10517;50.742;4.224;2024-01-30T10:30:20;4.05;;;2.47;;
20711;SDS011;10517;50.742;4.224;2024-01-30T10:32:46;5.03;;;2.17;;
20711;SDS011;10517;50.742;4.224;2024-01-30T10:35:12;7.65;;;2.45;;
20711;SDS011;10517;50.742;4.224;2024-01-30T10:37:38;4.78;;;2.50;;
20711;SDS011;10517;50.742;4.224;2024-01-30T10:40:04;3.08;;;1.98;;
20711;SDS011;10517;50.742;4.224;2024-01-30T10:42:31;9.40;;;1.98;;
20711;SDS011;10517;50.742;4.224;2024-01-30T10:47:34;3.97;;;1.83;;
20711;SDS011;10517;50.742;4.224;2024-01-30T10:50:03;2.05;;;1.27;;
20711;SDS011;10517;50.742;4.224;2024-01-30T10:52:29;3.17;;;2.53;;
20711;SDS011;10517;50.742;4.224;2024-01-30T10:54:56;3.15;;;1.10;;
20711;SDS011;10517;50.742;4.224;2024-01-30T10:57:25;7.22;;;1.90;;
20711;SDS011;10517;50.742;4.224;2024-01-30T11:00:01;1.15;;;0.88;;
20711;SDS011;10517;50.742;4.224;2024-01-30T11:02:35;0.47;;;0.43;;
20711;SDS011;10517;50.742;4.224;2024-01-30T11:05:04;2.83;;;1.15;;
20711;SDS011;10517;50.742;4.224;2024-01-30T11:07:30;2.75;;;1.65;;
20711;SDS011;10517;50.742;4.224;2024-01-30T11:12:32;0.35;;;0.20;;
20711;SDS011;10517;50.742;4.224;2024-01-30T11:15:03;1.50;;;0.60;;
20711;SDS011;10517;50.742;4.224;2024-01-30T11:17:41;2.38;;;0.20;;
20711;SDS011;10517;50.742;4.224;2024-01-30T11:22:44;2.25;;;0.63;;
20711;SDS011;10517;50.742;4.224;2024-01-30T11:25:15;0.70;;;0.15;;
20711;SDS011;10517;50.742;4.224;2024-01-30T11:27:45;0.30;;;0.30;;
20711;SDS011;10517;50.742;4.224;2024-01-30T11:30:32;2.42;;;0.10;;
20711;SDS011;10517;50.742;4.224;2024-01-30T11:32:58;0.70;;;0.30;;
20711;SDS011;10517;50.742;4.224;2024-01-30T11:35:29;0.22;;;0.20;;
20711;SDS011;10517;50.742;4.224;2024-01-30T11:37:57;0.55;;;0.10;;
20711;SDS011;10517;50.742;4.224;2024-01-30T11:40:24;0.32;;;0.20;;
20711;SDS011;10517;50.742;4.224;2024-01-30T11:42:54;0.70;;;0.38;;
20711;SDS011;10517;50.742;4.224;2024-01-30T11:45:20;5.78;;;2.25;;
20711;SDS011;10517;50.742;4.224;2024-01-30T11:47:46;0.20;;;0.20;;
20711;SDS011;10517;50.742;4.224;2024-01-30T11:50:12;0.10;;;0.03;;
20711;SDS011;10517;50.742;4.224;2024-01-30T11:52:39;0.35;;;0.10;;
20711;SDS011;10517;50.742;4.224;2024-01-30T11:55:05;0.30;;;0.10;;
20711;SDS011;10517;50.742;4.224;2024-01-30T11:57:31;0.25;;;0.25;;
20711;SDS011;10517;50.742;4.224;2024-01-30T11:59:57;0.00;;;0.00;;
20711;SDS011;10517;50.742;4.224;2024-01-30T12:02:22;0.13;;;0.13;;
20711;SDS011;10517;50.742;4.224;2024-01-30T12:04:48;0.10;;;0.00;;
20711;SDS011;10517;50.742;4.224;2024-01-30T12:07:13;1.20;;;0.20;;
20711;SDS011;10517;50.742;4.224;2024-01-30T12:09:42;1.83;;;0.30;;
20711;SDS011;10517;50.742;4.224;2024-01-30T12:12:07;0.03;;;0.03;;
20711;SDS011;10517;50.742;4.224;2024-01-30T12:14:39;1.27;;;0.50;;
20711;SDS011;10517;50.742;4.224;2024-01-30T12:17:05;0.30;;;0.30;;
20711;SDS011;10517;50.742;4.224;2024-01-30T12:19:32;0.00;;;0.00;;
20711;SDS011;10517;50.742;4.224;2024-01-30T12:21:58;0.00;;;0.00;;
20711;SDS011;10517;50.742;4.224;2024-01-30T12:24:27;0.25;;;0.15;;
20711;SDS011;10517;50.742;4.224;2024-01-30T12:26:58;0.57;;;0.10;;
20711;SDS011;10517;50.742;4.224;2024-01-30T12:29:25;2.25;;;0.10;;
20711;SDS011;10517;50.742;4.224;2024-01-30T12:31:54;0.10;;;0.00;;
20711;SDS011;10517;50.742;4.224;2024-01-30T12:34:20;0.00;;;0.00;;
20711;SDS011;10517;50.742;4.224;2024-01-30T12:36:49;0.05;;;0.05;;
20711;SDS011;10517;50.742;4.224;2024-01-30T12:39:15;0.52;;;0.03;;
20711;SDS011;10517;50.742;4.224;2024-01-30T12:41:41;0.05;;;0.00;;
20711;SDS011;10517;50.742;4.224;2024-01-30T12:44:07;0.00;;;0.00;;
20711;SDS011;10517;50.742;4.224;2024-01-30T12:46:36;0.03;;;0.03;;
20711;SDS011;10517;50.742;4.224;2024-01-30T12:49:01;0.20;;;0.10;;
20711;SDS011;10517;50.742;4.224;2024-01-30T12:51:27;0.88;;;0.00;;
20711;SDS011;10517;50.742;4.224;2024-01-30T12:53:53;0.03;;;0.03;;
20711;SDS011;10517;50.742;4.224;2024-01-30T12:56:19;0.57;;;0.28;;
20711;SDS011;10517;50.742;4.224;2024-01-30T12:58:45;0.45;;;0.10;;
20711;SDS011;10517;50.742;4.224;2024-01-30T13:01:10;0.00;;;0.00;;
20711;SDS011;10517;50.742;4.224;2024-01-30T13:03:36;0.38;;;0.10;;
20711;SDS011;10517;50.742;4.224;2024-01-30T13:06:02;0.00;;;0.00;;
20711;SDS011;10517;50.742;4.224;2024-01-30T13:08:27;0.03;;;0.03;;
20711;SDS011;10517;50.742;4.224;2024-01-30T13:10:53;1.65;;;0.20;;
20711;SDS011;10517;50.742;4.224;2024-01-30T13:13:19;0.10;;;0.10;;
20711;SDS011;10517;50.742;4.224;2024-01-30T13:15:44;0.32;;;0.00;;
20711;SDS011;10517;50.742;4.224;2024-01-30T13:18:10;0.00;;;0.00;;
20711;SDS011;10517;50.742;4.224;2024-01-30T13:20:35;1.20;;;0.22;;
20711;SDS011;10517;50.742;4.224;2024-01-30T13:23:01;2.92;;;0.15;;
20711;SDS011;10517;50.742;4.224;2024-01-30T13:25:26;0.20;;;0.10;;
20711;SDS011;10517;50.742;4.224;2024-01-30T13:27:52;1.92;;;0.20;;
20711;SDS011;10517;50.742;4.224;2024-01-30T13:30:18;0.08;;;0.00;;
20711;SDS011;10517;50.742;4.224;2024-01-30T13:32:44;2.10;;;0.20;;
20711;SDS011;10517;50.742;4.224;2024-01-30T13:35:10;0.80;;;0.25;;
20711;SDS011;10517;50.742;4.224;2024-01-30T13:37:35;1.05;;;0.65;;
20711;SDS011;10517;50.742;4.224;2024-01-30T13:40:02;0.32;;;0.20;;
20711;SDS011;10517;50.742;4.224;2024-01-30T13:42:31;3.88;;;0.28;;
20711;SDS011;10517;50.742;4.224;2024-01-30T13:44:57;2.10;;;0.50;;
20711;SDS011;10517;50.742;4.224;2024-01-30T13:47:23;1.38;;;0.20;;
20711;SDS011;10517;50.742;4.224;2024-01-30T13:49:48;0.10;;;0.08;;
20711;SDS011;10517;50.742;4.224;2024-01-30T13:52:14;0.50;;;0.10;;
20711;SDS011;10517;50.742;4.224;2024-01-30T13:54:40;0.20;;;0.10;;
20711;SDS011;10517;50.742;4.224;2024-01-30T13:57:05;0.30;;;0.10;;
20711;SDS011;10517;50.742;4.224;2024-01-30T13:59:32;0.17;;;0.10;;
20711;SDS011;10517;50.742;4.224;2024-01-30T14:01:58;0.10;;;0.10;;
20711;SDS011;10517;50.742;4.224;2024-01-30T14:04:23;2.15;;;0.13;;
20711;SDS011;10517;50.742;4.224;2024-01-30T14:06:49;8.30;;;1.65;;
20711;SDS011;10517;50.742;4.224;2024-01-30T14:09:15;0.00;;;0.00;;
20711;SDS011;10517;50.742;4.224;2024-01-30T14:11:41;0.08;;;0.00;;
20711;SDS011;10517;50.742;4.224;2024-01-30T14:14:06;0.00;;;0.00;;
20711;SDS011;10517;50.742;4.224;2024-01-30T14:16:32;2.85;;;0.13;;
20711;SDS011;10517;50.742;4.224;2024-01-30T14:18:58;2.45;;;0.15;;
20711;SDS011;10517;50.742;4.224;2024-01-30T14:21:23;0.82;;;0.70;;
20711;SDS011;10517;50.742;4.224;2024-01-30T14:23:49;2.55;;;0.75;;
20711;SDS011;10517;50.742;4.224;2024-01-30T14:26:15;0.20;;;0.17;;
20711;SDS011;10517;50.742;4.224;2024-01-30T14:28:40;0.40;;;0.40;;
20711;SDS011;10517;50.742;4.224;2024-01-30T14:31:06;0.85;;;0.20;;
20711;SDS011;10517;50.742;4.224;2024-01-30T14:33:32;0.10;;;0.10;;
20711;SDS011;10517;50.742;4.224;2024-01-30T14:35:57;0.30;;;0.30;;
20711;SDS011;10517;50.742;4.224;2024-01-30T14:38:23;0.85;;;0.20;;
20711;SDS011;10517;50.742;4.224;2024-01-30T14:40:50;0.57;;;0.57;;
20711;SDS011;10517;50.742;4.224;2024-01-30T14:43:15;0.10;;;0.10;;
20711;SDS011;10517;50.742;4.224;2024-01-30T14:45:41;0.10;;;0.10;;
20711;SDS011;10517;50.742;4.224;2024-01-30T14:48:07;0.70;;;0.17;;
20711;SDS011;10517;50.742;4.224;2024-01-30T14:50:33;2.13;;;0.10;;